createdAt,value
2022-09-25T00:02:15.864Z,38.73
2022-09-25T00:04:51.523Z,43.03
2022-09-25T00:07:18.099Z,38.53
2022-09-25T00:09:44.831Z,40.10
2022-09-25T00:12:11.506Z,41.13
2022-09-25T00:14:38.633Z,41.73
2022-09-25T00:17:05.307Z,47.97
2022-09-25T00:19:50.053Z,49.90
2022-09-25T00:22:18.385Z,54.37
2022-09-25T00:24:45.117Z,51.27
2022-09-25T00:27:12.000Z,50.40
2022-09-25T00:29:40.192Z,58.17
2022-09-25T00:32:09.785Z,54.30
2022-09-25T00:34:40.660Z,57.17
2022-09-25T00:37:07.572Z,52.60
2022-09-25T00:39:34.682Z,47.07
2022-09-25T00:42:01.291Z,49.90
2022-09-25T00:44:51.250Z,46.33
2022-09-25T00:47:23.936Z,49.93
2022-09-25T00:49:52.281Z,50.90
2022-09-25T00:52:19.260Z,51.83
2022-09-25T00:54:55.640Z,55.70
2022-09-25T00:57:26.903Z,49.13
2022-09-25T00:59:59.075Z,53.90
2022-09-25T01:02:35.906Z,54.90
2022-09-25T01:05:11.052Z,58.37
2022-09-25T01:07:41.497Z,52.73
2022-09-25T01:10:08.781Z,55.17
2022-09-25T01:12:38.842Z,59.43
2022-09-25T01:15:09.379Z,63.00
2022-09-25T01:17:52.801Z,64.50
2022-09-25T01:20:32.943Z,54.17
2022-09-25T01:23:20.377Z,63.73
2022-09-25T01:26:31.805Z,56.63
2022-09-25T01:29:11.453Z,60.00
2022-09-25T01:31:46.849Z,66.63
2022-09-25T01:34:32.164Z,62.73
2022-09-25T01:37:16.288Z,67.40
2022-09-25T01:39:54.321Z,57.80
2022-09-25T01:42:27.606Z,57.20
2022-09-25T01:45:02.339Z,59.50
2022-09-25T01:47:33.602Z,67.37
2022-09-25T01:50:04.959Z,54.53
2022-09-25T01:52:37.372Z,60.67
2022-09-25T01:55:22.488Z,56.33
2022-09-25T01:57:55.175Z,60.73
2022-09-25T02:00:25.744Z,50.20
2022-09-25T02:02:57.344Z,71.57
2022-09-25T02:05:33.554Z,64.40
2022-09-25T02:08:18.012Z,80.97
2022-09-25T02:10:50.964Z,75.13
2022-09-25T02:13:20.713Z,75.77
2022-09-25T02:15:53.794Z,58.07
2022-09-25T02:18:40.504Z,58.13
2022-09-25T02:21:21.159Z,66.43
2022-09-25T02:24:05.414Z,64.57
2022-09-25T02:26:34.655Z,70.93
2022-09-25T02:29:02.485Z,63.53
2022-09-25T02:31:35.722Z,74.60
2022-09-25T02:34:03.816Z,78.70
2022-09-25T02:36:32.300Z,78.47
2022-09-25T02:38:59.361Z,82.47
2022-09-25T02:41:43.926Z,80.13
2022-09-25T02:44:36.594Z,64.80
2022-09-25T02:47:34.705Z,68.10
2022-09-25T02:50:29.830Z,70.90
2022-09-25T02:52:56.760Z,67.17
2022-09-25T02:55:33.154Z,64.50
2022-09-25T02:58:20.828Z,62.50
2022-09-25T03:00:50.437Z,60.60
2022-09-25T03:03:19.754Z,58.63
2022-09-25T03:05:48.602Z,59.37
2022-09-25T03:08:34.326Z,58.80
2022-09-25T03:11:01.372Z,55.40
2022-09-25T03:13:33.124Z,53.47
2022-09-25T03:16:09.166Z,51.63
2022-09-25T03:18:35.824Z,53.50
2022-09-25T03:21:04.205Z,56.30
2022-09-25T03:23:31.769Z,47.03
2022-09-25T03:25:59.033Z,56.47
2022-09-25T03:28:25.701Z,44.50
2022-09-25T03:31:04.345Z,49.80
2022-09-25T03:33:35.750Z,51.17
2022-09-25T03:36:09.649Z,45.63
2022-09-25T03:38:37.132Z,50.43
2022-09-25T03:41:05.591Z,52.67
2022-09-25T03:43:33.660Z,47.43
2022-09-25T03:46:00.308Z,51.50
2022-09-25T03:48:26.907Z,55.37
2022-09-25T03:50:53.717Z,52.37
2022-09-25T03:53:20.292Z,45.13
2022-09-25T03:55:48.956Z,48.23
2022-09-25T03:58:16.701Z,52.17
2022-09-25T04:00:45.858Z,52.33
2022-09-25T04:03:13.998Z,48.50
2022-09-25T04:05:42.164Z,46.03
2022-09-25T04:08:08.774Z,47.63
2022-09-25T04:10:38.728Z,56.57
2022-09-25T04:13:06.790Z,55.00
2022-09-25T04:15:33.932Z,59.90
2022-09-25T04:18:05.725Z,77.70
2022-09-25T04:20:33.018Z,63.37
2022-09-25T04:22:59.590Z,50.63
2022-09-25T04:25:26.217Z,53.43
2022-09-25T04:27:56.935Z,53.00
2022-09-25T04:30:25.706Z,46.07
2022-09-25T04:33:10.887Z,51.50
2022-09-25T04:35:37.547Z,46.23
2022-09-25T04:38:04.507Z,58.30
2022-09-25T04:40:31.835Z,55.40
2022-09-25T04:43:00.248Z,48.00
2022-09-25T04:45:28.232Z,57.20
2022-09-25T04:47:55.440Z,55.67
2022-09-25T04:50:25.961Z,54.43
2022-09-25T04:52:53.209Z,55.07
2022-09-25T04:55:22.153Z,46.80
2022-09-25T04:57:58.932Z,49.33
2022-09-25T05:00:29.018Z,51.40
2022-09-25T05:02:56.189Z,45.33
2022-09-25T05:05:28.054Z,57.40
2022-09-25T05:07:56.557Z,52.63
2022-09-25T05:10:29.904Z,54.40
2022-09-25T05:12:58.846Z,63.47
2022-09-25T05:15:26.657Z,62.10
2022-09-25T05:18:17.547Z,54.77
2022-09-25T05:20:44.230Z,52.30
2022-09-25T05:23:10.986Z,54.23
2022-09-25T05:25:38.245Z,51.93
2022-09-25T05:28:04.944Z,59.80
2022-09-25T05:30:33.868Z,68.37
2022-09-25T05:33:00.794Z,65.93
2022-09-25T05:35:29.871Z,60.43
2022-09-25T05:37:56.522Z,64.13
2022-09-25T05:40:24.072Z,61.77
2022-09-25T05:42:51.963Z,63.10
2022-09-25T05:45:20.625Z,62.00
2022-09-25T05:47:47.885Z,73.07
2022-09-25T05:50:16.617Z,66.90
2022-09-25T05:52:43.271Z,60.70
2022-09-25T05:55:10.942Z,67.17
2022-09-25T05:57:38.303Z,57.20
2022-09-25T06:00:12.444Z,59.60
2022-09-25T06:02:39.477Z,61.57
2022-09-25T06:05:06.392Z,61.93
2022-09-25T06:07:33.047Z,62.07
2022-09-25T06:09:59.679Z,67.30
2022-09-25T06:12:29.355Z,61.73
2022-09-25T06:14:56.115Z,73.53
2022-09-25T06:17:22.906Z,68.87
2022-09-25T06:19:49.616Z,70.63
2022-09-25T06:22:16.206Z,60.70
2022-09-25T06:24:42.799Z,58.20
2022-09-25T06:27:09.697Z,59.57
2022-09-25T06:29:36.438Z,56.37
2022-09-25T06:32:03.850Z,56.60
2022-09-25T06:34:30.498Z,49.37
2022-09-25T06:36:57.122Z,56.57
2022-09-25T06:39:23.761Z,66.20
2022-09-25T06:41:53.796Z,68.77
2022-09-25T06:44:21.959Z,69.93
2022-09-25T06:46:54.534Z,63.43
2022-09-25T06:49:21.962Z,57.73
2022-09-25T06:51:51.052Z,59.60
2022-09-25T06:54:18.084Z,53.13
2022-09-25T06:56:49.304Z,55.33
2022-09-25T06:59:16.401Z,56.63
2022-09-25T07:01:43.047Z,49.90
2022-09-25T07:04:10.198Z,49.13
2022-09-25T07:06:37.392Z,48.87
2022-09-25T07:09:04.397Z,47.17
2022-09-25T07:11:33.821Z,45.90
2022-09-25T07:14:00.592Z,46.67
2022-09-25T07:16:29.910Z,43.07
2022-09-25T07:19:00.538Z,41.90
2022-09-25T07:21:30.474Z,38.00
2022-09-25T07:23:58.853Z,42.93
2022-09-25T07:26:30.125Z,42.23
2022-09-25T07:29:04.980Z,42.20
2022-09-25T07:31:33.412Z,36.87
2022-09-25T07:34:05.871Z,40.83
2022-09-25T07:36:38.544Z,45.03
2022-09-25T07:39:05.947Z,47.17
2022-09-25T07:41:33.428Z,38.80
2022-09-25T07:46:47.421Z,41.87
2022-09-25T07:49:14.280Z,32.17
2022-09-25T07:51:40.933Z,42.70
2022-09-25T07:54:07.945Z,34.70
2022-09-25T07:56:34.735Z,39.53
2022-09-25T07:59:01.690Z,40.90
2022-09-25T08:01:28.419Z,44.00
2022-09-25T08:03:55.109Z,39.23
2022-09-25T08:06:21.727Z,44.10
2022-09-25T08:08:48.393Z,134.93
2022-09-25T08:11:17.035Z,58.50
2022-09-25T08:13:44.805Z,36.80
2022-09-25T08:16:16.418Z,38.20
2022-09-25T08:18:47.933Z,36.70
2022-09-25T08:21:17.386Z,35.73
2022-09-25T08:23:49.259Z,34.97
2022-09-25T08:26:17.508Z,37.07
2022-09-25T08:28:44.704Z,33.93
2022-09-25T08:31:12.017Z,35.63
2022-09-25T08:33:40.356Z,39.00
2022-09-25T08:36:07.086Z,34.40
2022-09-25T08:38:33.630Z,33.90
2022-09-25T08:41:24.482Z,31.40
2022-09-25T08:44:06.221Z,33.67
2022-09-25T08:47:05.320Z,29.87
2022-09-25T08:49:38.872Z,30.00
2022-09-25T08:52:09.086Z,28.10
2022-09-25T08:54:36.405Z,26.60
2022-09-25T08:57:11.673Z,20.60
2022-09-25T08:59:43.086Z,20.87
2022-09-25T09:02:14.738Z,20.97
2022-09-25T09:04:54.595Z,21.80
2022-09-25T09:07:44.232Z,24.13
2022-09-25T09:10:13.499Z,20.60
2022-09-25T09:12:45.131Z,23.30
2022-09-25T09:15:35.684Z,25.17
2022-09-25T09:18:15.012Z,22.33
2022-09-25T09:20:53.018Z,20.40
2022-09-25T09:23:22.905Z,24.07
2022-09-25T09:25:49.407Z,21.43
2022-09-25T09:28:21.972Z,25.77
2022-09-25T09:31:03.799Z,25.53
2022-09-25T09:34:06.512Z,30.53
2022-09-25T09:36:55.059Z,30.00
2022-09-25T09:39:40.116Z,74.37
2022-09-25T09:42:22.828Z,27.20
2022-09-25T09:44:58.761Z,27.60
2022-09-25T09:47:50.341Z,28.83
2022-09-25T09:50:26.056Z,23.87
2022-09-25T09:53:03.219Z,24.27
2022-09-25T09:55:49.669Z,24.60
2022-09-25T09:58:27.110Z,25.50
2022-09-25T10:00:53.985Z,21.90
2022-09-25T10:03:38.824Z,20.10
2022-09-25T10:06:11.815Z,22.40
2022-09-25T10:08:38.836Z,24.53
2022-09-25T10:11:17.872Z,22.70
2022-09-25T10:13:45.758Z,23.70
2022-09-25T10:16:16.505Z,24.83
2022-09-25T10:18:55.309Z,21.67
2022-09-25T10:21:25.489Z,22.33
2022-09-25T10:23:54.488Z,22.70
2022-09-25T10:26:30.280Z,28.73
2022-09-25T10:28:58.981Z,22.63
2022-09-25T10:31:30.438Z,18.23
2022-09-25T10:34:04.744Z,19.90
2022-09-25T10:36:39.011Z,22.70
2022-09-25T10:39:43.537Z,19.27
2022-09-25T10:42:33.118Z,20.80
2022-09-25T10:44:59.879Z,19.30
2022-09-25T10:47:49.512Z,21.20
2022-09-25T10:50:21.642Z,16.90
2022-09-25T10:52:59.284Z,21.23
2022-09-25T10:55:29.270Z,20.63
2022-09-25T10:58:11.135Z,20.80
2022-09-25T11:00:54.278Z,18.50
2022-09-25T11:03:21.378Z,17.70
2022-09-25T11:05:55.250Z,21.50
2022-09-25T11:08:26.417Z,19.30
2022-09-25T11:10:58.885Z,19.10
2022-09-25T11:13:40.058Z,21.37
2022-09-25T11:16:10.305Z,23.37
2022-09-25T11:18:46.099Z,17.33
2022-09-25T11:21:36.162Z,16.73
2022-09-25T11:24:20.414Z,18.97
2022-09-25T11:27:30.571Z,16.00
2022-09-25T11:30:06.195Z,18.63
2022-09-25T11:32:54.293Z,20.47
2022-09-25T11:35:26.885Z,16.13
2022-09-25T11:38:44.537Z,16.23
2022-09-25T11:41:37.667Z,18.20
2022-09-25T11:44:31.977Z,14.53
2022-09-25T11:47:17.412Z,17.33
2022-09-25T11:49:48.927Z,17.10
2022-09-25T11:52:40.101Z,20.03
2022-09-25T11:55:36.559Z,18.73
2022-09-25T11:58:15.274Z,17.60
2022-09-25T12:01:03.096Z,18.33
2022-09-25T12:04:00.892Z,16.63
2022-09-25T12:06:33.783Z,20.07
2022-09-25T12:09:16.286Z,15.03
2022-09-25T12:11:56.470Z,16.40
2022-09-25T12:15:01.439Z,16.50
2022-09-25T12:17:50.973Z,19.00
2022-09-25T12:20:21.833Z,20.57
2022-09-25T12:23:13.806Z,15.77
2022-09-25T12:25:44.124Z,15.80
2022-09-25T12:28:36.303Z,12.43
2022-09-25T12:31:33.840Z,12.93
2022-09-25T12:34:14.672Z,11.83
2022-09-25T12:36:52.718Z,14.90
2022-09-25T12:39:37.246Z,13.67
2022-09-25T12:42:09.266Z,15.40
2022-09-25T12:44:50.202Z,15.03
2022-09-25T12:47:34.608Z,16.90
2022-09-25T12:50:13.312Z,16.10
2022-09-25T12:52:51.712Z,10.37
2022-09-25T12:55:23.541Z,12.30
2022-09-25T12:58:03.263Z,11.43
2022-09-25T13:00:34.488Z,10.17
2022-09-25T13:03:12.341Z,10.27
2022-09-25T13:05:40.189Z,8.60
2022-09-25T13:08:12.150Z,10.30
2022-09-25T13:10:45.053Z,12.57
2022-09-25T13:13:36.404Z,10.33
2022-09-25T13:16:03.403Z,9.67
2022-09-25T13:18:33.866Z,11.93
2022-09-25T13:21:23.738Z,11.03
2022-09-25T13:23:53.365Z,11.47
2022-09-25T13:26:27.033Z,10.97
2022-09-25T13:28:58.641Z,9.67
2022-09-25T13:31:34.409Z,12.10
2022-09-25T13:34:01.113Z,9.47
2022-09-25T13:36:34.548Z,10.27
2022-09-25T13:39:46.056Z,10.07
2022-09-25T13:42:49.444Z,9.07
2022-09-25T13:45:21.664Z,12.13
2022-09-25T13:47:54.926Z,8.80
2022-09-25T13:50:34.155Z,8.77
2022-09-25T13:53:20.399Z,7.60
2022-09-25T13:55:50.191Z,9.30
2022-09-25T13:58:21.701Z,8.07
2022-09-25T14:00:58.664Z,6.73
2022-09-25T14:03:46.140Z,6.73
2022-09-25T14:06:30.403Z,11.67
2022-09-25T14:08:59.632Z,8.67
2022-09-25T14:11:34.334Z,6.80
2022-09-25T14:14:05.522Z,5.20
2022-09-25T14:16:37.143Z,3.60
2022-09-25T14:19:05.782Z,1.77
2022-09-25T14:21:34.458Z,2.30
2022-09-25T14:24:34.776Z,3.93
2022-09-25T14:27:01.933Z,5.97
2022-09-25T14:29:39.160Z,4.53
2022-09-25T14:35:45.479Z,3.07
2022-09-25T14:38:48.517Z,5.50
2022-09-25T14:41:43.330Z,3.80
2022-09-25T14:44:57.665Z,5.80
2022-09-25T14:47:44.588Z,4.13
2022-09-25T14:50:24.255Z,6.57
2022-09-25T14:53:00.274Z,3.33
2022-09-25T14:55:36.761Z,5.33
2022-09-25T14:58:09.132Z,2.87
2022-09-25T15:00:43.856Z,3.80
2022-09-25T15:03:14.185Z,3.17
2022-09-25T15:05:46.826Z,2.73
2022-09-25T15:08:44.227Z,5.20
2022-09-25T15:11:14.348Z,3.03
2022-09-25T15:13:42.418Z,6.10
2022-09-25T15:16:32.726Z,4.70
2022-09-25T15:19:02.087Z,5.77
2022-09-25T15:21:34.400Z,3.93
2022-09-25T15:24:17.837Z,6.47
2022-09-25T15:26:50.551Z,3.87
2022-09-25T15:29:21.030Z,3.77
2022-09-25T15:31:51.228Z,2.93
2022-09-25T15:34:24.796Z,6.20
2022-09-25T15:36:52.186Z,2.70
2022-09-25T15:39:27.772Z,3.07
2022-09-25T15:41:55.262Z,4.27
2022-09-25T15:44:24.108Z,5.23
2022-09-25T15:46:53.491Z,5.57
2022-09-25T15:49:44.381Z,4.17
2022-09-25T15:52:34.615Z,4.77
2022-09-25T15:55:12.782Z,3.17
2022-09-25T15:57:39.447Z,2.83
2022-09-25T16:00:28.287Z,3.20
2022-09-25T16:03:21.156Z,3.17
2022-09-25T16:05:50.031Z,2.17
2022-09-25T16:08:36.523Z,4.50
2022-09-25T16:11:21.824Z,2.40
2022-09-25T16:14:14.526Z,3.47
2022-09-25T16:16:49.204Z,3.40
2022-09-25T16:19:25.089Z,6.73
2022-09-25T16:21:52.879Z,4.37
2022-09-25T16:24:23.307Z,4.20
2022-09-25T16:26:57.887Z,3.60
2022-09-25T16:29:27.494Z,4.07
2022-09-25T16:32:00.002Z,3.30
2022-09-25T16:34:39.185Z,5.23
2022-09-25T16:37:18.238Z,5.50
2022-09-25T16:39:44.873Z,15.60
2022-09-25T16:42:29.311Z,5.23
2022-09-25T16:45:14.972Z,14.30
2022-09-25T16:47:46.796Z,5.07
2022-09-25T16:50:16.528Z,3.37
2022-09-25T16:52:44.488Z,3.67
2022-09-25T16:55:27.324Z,9.80
2022-09-25T16:57:59.250Z,8.57
2022-09-25T17:00:28.164Z,10.20
2022-09-25T17:02:55.554Z,7.67
2022-09-25T17:05:26.527Z,6.33
2022-09-25T17:07:56.417Z,6.10
2022-09-25T17:10:26.265Z,8.50
2022-09-25T17:12:54.678Z,8.70
2022-09-25T17:15:29.259Z,6.37
2022-09-25T17:17:55.994Z,5.60
2022-09-25T17:20:24.328Z,4.47
2022-09-25T17:22:52.597Z,5.57
2022-09-25T17:25:45.045Z,4.87
2022-09-25T17:28:12.191Z,4.80
2022-09-25T17:30:39.540Z,4.13
2022-09-25T17:33:06.774Z,3.97
2022-09-25T17:36:03.546Z,4.90
2022-09-25T17:38:32.371Z,4.03
2022-09-25T17:41:05.446Z,4.53
2022-09-25T17:43:33.240Z,4.20
2022-09-25T17:46:01.002Z,4.23
2022-09-25T17:48:31.133Z,4.40
2022-09-25T17:51:02.413Z,6.03
2022-09-25T17:53:31.731Z,4.53
2022-09-25T17:56:00.002Z,5.10
2022-09-25T17:58:32.381Z,4.30
2022-09-25T18:01:01.787Z,4.23
2022-09-25T18:03:30.865Z,4.00
2022-09-25T18:05:58.098Z,7.27
2022-09-25T18:08:24.886Z,14.73
2022-09-25T18:10:58.644Z,14.03
2022-09-25T18:13:25.441Z,6.87
2022-09-25T18:16:01.872Z,7.53
2022-09-25T18:18:51.306Z,4.60
2022-09-25T18:21:36.593Z,6.60
2022-09-25T18:24:03.783Z,5.93
2022-09-25T18:26:31.578Z,5.30
2022-09-25T18:28:58.393Z,5.97
2022-09-25T18:31:25.548Z,8.20
2022-09-25T18:33:54.830Z,16.10
2022-09-25T18:36:22.482Z,7.60
2022-09-25T18:38:49.137Z,7.60
2022-09-25T18:41:15.857Z,7.27
2022-09-25T18:43:43.263Z,9.33
2022-09-25T18:46:10.952Z,8.57
2022-09-25T18:48:37.641Z,8.50
2022-09-25T18:51:05.216Z,16.10
2022-09-25T18:53:32.882Z,10.43
2022-09-25T18:55:59.606Z,16.73
2022-09-25T18:58:29.662Z,9.23
2022-09-25T19:00:56.396Z,6.57
2022-09-25T19:03:23.302Z,7.17
2022-09-25T19:06:01.440Z,7.63
2022-09-25T19:08:29.575Z,8.10
2022-09-25T19:10:58.474Z,8.70
2022-09-25T19:13:27.306Z,6.83
2022-09-25T19:15:55.692Z,5.67
2022-09-25T19:18:22.933Z,6.10
2022-09-25T19:20:54.290Z,5.80
2022-09-25T19:23:24.876Z,5.80
2022-09-25T19:25:53.467Z,8.60
2022-09-25T19:28:20.088Z,6.10
2022-09-25T19:30:56.576Z,4.77
2022-09-25T19:33:23.241Z,4.77
2022-09-25T19:35:49.974Z,5.60
2022-09-25T19:38:16.642Z,5.70
2022-09-25T19:40:43.449Z,6.57
2022-09-25T19:43:10.166Z,7.03
2022-09-25T19:45:37.197Z,8.73
2022-09-25T19:48:03.950Z,11.83
2022-09-25T19:50:30.730Z,12.10
2022-09-25T19:52:57.395Z,9.40
2022-09-25T19:55:24.154Z,7.67
2022-09-25T19:57:50.849Z,9.37
2022-09-25T20:00:18.410Z,7.67
2022-09-25T20:02:46.740Z,8.27
2022-09-25T20:05:13.656Z,6.23
2022-09-25T20:07:40.250Z,4.43
2022-09-25T20:10:07.081Z,5.83
2022-09-25T20:12:33.787Z,4.37
2022-09-25T20:15:00.403Z,5.77
2022-09-25T20:17:27.017Z,4.27
2022-09-25T20:19:53.722Z,11.53
2022-09-25T20:22:20.382Z,4.13
2022-09-25T20:24:47.185Z,3.47
2022-09-25T20:27:14.031Z,3.90
2022-09-25T20:29:40.743Z,6.60
2022-09-25T20:32:07.363Z,3.47
2022-09-25T20:34:34.125Z,3.37
2022-09-25T20:37:00.732Z,2.73
2022-09-25T20:39:27.614Z,3.50
2022-09-25T20:41:54.244Z,3.30
2022-09-25T20:44:20.870Z,3.77
2022-09-25T20:46:47.578Z,8.73
2022-09-25T20:49:14.672Z,6.23
2022-09-25T20:51:42.196Z,7.57
2022-09-25T20:54:10.006Z,6.37
2022-09-25T20:56:39.108Z,5.73
2022-09-25T20:59:06.181Z,5.63
2022-09-25T21:01:36.643Z,10.13
2022-09-25T21:04:08.074Z,7.90
2022-09-25T21:06:37.189Z,10.47
2022-09-25T21:09:07.726Z,7.20
2022-09-25T21:11:35.017Z,6.43
2022-09-25T21:14:02.967Z,6.60
2022-09-25T21:16:31.502Z,9.70
2022-09-25T21:19:04.316Z,7.17
2022-09-25T21:21:33.248Z,8.60
2022-09-25T21:24:01.311Z,6.40
2022-09-25T21:26:29.908Z,4.53
2022-09-25T21:28:59.930Z,7.30
2022-09-25T21:31:30.657Z,5.10
2022-09-25T21:33:59.495Z,5.00
2022-09-25T21:36:27.805Z,6.53
2022-09-25T21:38:54.839Z,5.63
2022-09-25T21:41:24.188Z,6.20
2022-09-25T21:43:56.080Z,11.50
2022-09-25T21:46:23.862Z,7.67
2022-09-25T21:49:03.477Z,5.20
2022-09-25T21:51:37.052Z,6.07
2022-09-25T21:54:05.731Z,5.63
2022-09-25T21:56:32.624Z,5.10
2022-09-25T21:59:08.228Z,4.90
2022-09-25T22:01:37.408Z,6.90
2022-09-25T22:04:04.888Z,5.70
2022-09-25T22:06:34.670Z,5.33
2022-09-25T22:09:06.252Z,8.20
2022-09-25T22:11:37.317Z,6.30
2022-09-25T22:14:04.847Z,9.30
2022-09-25T22:16:35.043Z,6.50
2022-09-25T22:19:09.638Z,6.40
2022-09-25T22:21:37.010Z,6.60
2022-09-25T22:24:04.544Z,5.63
2022-09-25T22:26:33.294Z,6.60
2022-09-25T22:28:59.961Z,7.37
2022-09-25T22:31:29.348Z,6.97
2022-09-25T22:34:00.530Z,7.07
2022-09-25T22:36:28.142Z,5.90
2022-09-25T22:38:55.689Z,6.50
2022-09-25T22:41:22.888Z,6.40
2022-09-25T22:43:51.537Z,6.93
2022-09-25T22:46:19.482Z,4.97
2022-09-25T22:48:46.236Z,6.77
2022-09-25T22:51:36.265Z,7.30
2022-09-25T22:54:02.944Z,6.60
2022-09-25T22:56:34.800Z,6.90
2022-09-25T22:59:07.759Z,7.07
2022-09-25T23:01:34.580Z,8.70
2022-09-25T23:04:03.519Z,6.23
2022-09-25T23:06:32.737Z,8.63
2022-09-25T23:09:02.015Z,7.70
2022-09-25T23:11:29.428Z,7.67
2022-09-25T23:14:01.057Z,8.43
2022-09-25T23:16:28.484Z,9.00
2022-09-25T23:18:59.569Z,7.67
2022-09-25T23:21:27.766Z,7.60
2022-09-25T23:23:56.939Z,8.13
2022-09-25T23:26:23.987Z,8.77
2022-09-25T23:28:50.658Z,7.83
2022-09-25T23:31:18.503Z,8.63
2022-09-25T23:33:46.296Z,7.30
2022-09-25T23:36:17.600Z,9.00
2022-09-25T23:38:45.174Z,7.87
2022-09-25T23:41:17.849Z,7.87
2022-09-25T23:43:45.679Z,8.73
2022-09-25T23:46:13.870Z,8.13
2022-09-25T23:48:40.703Z,7.93
2022-09-25T23:51:07.451Z,7.63
2022-09-25T23:53:34.564Z,6.97
2022-09-25T23:56:16.632Z,9.20
2022-09-25T23:58:44.055Z,7.43
